sensor_id;sensor_type;location;lat;lon;timestamp;temperature;humidity
39875;DHT22;25547;52.530;13.194;2023-05-24T00:02:06;11.60;99.90
39875;DHT22;25547;52.530;13.194;2023-05-24T00:04:32;11.60;99.90
39875;DHT22;25547;52.530;13.194;2023-05-24T00:07:03;11.60;99.90
39875;DHT22;25547;52.530;13.194;2023-05-24T00:09:29;11.70;99.90
39875;DHT22;25547;52.530;13.194;2023-05-24T00:11:58;11.70;99.90
39875;DHT22;25547;52.530;13.194;2023-05-24T00:14:26;11.70;99.90
39875;DHT22;25547;52.530;13.194;2023-05-24T00:16:56;11.70;99.90
39875;DHT22;25547;52.530;13.194;2023-05-24T00:19:22;11.70;99.90
39875;DHT22;25547;52.530;13.194;2023-05-24T00:21:48;11.60;99.90
39875;DHT22;25547;52.530;13.194;2023-05-24T00:24:14;11.60;99.90
39875;DHT22;25547;52.530;13.194;2023-05-24T00:26:42;11.60;99.90
39875;DHT22;25547;52.530;13.194;2023-05-24T00:29:08;11.60;99.90
39875;DHT22;25547;52.530;13.194;2023-05-24T00:31:34;11.60;99.90
39875;DHT22;25547;52.530;13.194;2023-05-24T00:33:59;11.60;99.90
39875;DHT22;25547;52.530;13.194;2023-05-24T00:36:27;11.60;99.90
39875;DHT22;25547;52.530;13.194;2023-05-24T00:38:53;11.60;99.90
39875;DHT22;25547;52.530;13.194;2023-05-24T00:41:18;11.60;99.90
39875;DHT22;25547;52.530;13.194;2023-05-24T00:43:44;11.70;99.90
39875;DHT22;25547;52.530;13.194;2023-05-24T00:46:17;11.60;99.90
39875;DHT22;25547;52.530;13.194;2023-05-24T00:48:48;11.60;99.90
39875;DHT22;25547;52.530;13.194;2023-05-24T00:51:14;11.60;99.90
39875;DHT22;25547;52.530;13.194;2023-05-24T00:53:41;11.60;99.90
39875;DHT22;25547;52.530;13.194;2023-05-24T00:56:07;11.60;99.90
39875;DHT22;25547;52.530;13.194;2023-05-24T00:58:33;11.60;99.90
39875;DHT22;25547;52.530;13.194;2023-05-24T01:01:01;11.60;99.90
39875;DHT22;25547;52.530;13.194;2023-05-24T01:03:27;11.60;99.90
39875;DHT22;25547;52.530;13.194;2023-05-24T01:06:02;11.60;99.90
39875;DHT22;25547;52.530;13.194;2023-05-24T01:16:26;11.60;99.90
39875;DHT22;25547;52.530;13.194;2023-05-24T01:19:01;11.60;99.90
39875;DHT22;25547;52.530;13.194;2023-05-24T01:22:07;11.70;99.90
39875;DHT22;25547;52.530;13.194;2023-05-24T01:25:06;11.60;99.90
39875;DHT22;25547;52.530;13.194;2023-05-24T01:27:38;11.60;99.90
39875;DHT22;25547;52.530;13.194;2023-05-24T01:30:06;11.60;99.90
39875;DHT22;25547;52.530;13.194;2023-05-24T01:32:33;11.60;99.90
39875;DHT22;25547;52.530;13.194;2023-05-24T01:34:59;11.50;99.90
39875;DHT22;25547;52.530;13.194;2023-05-24T01:37:26;11.50;99.90
39875;DHT22;25547;52.530;13.194;2023-05-24T01:39:54;11.60;99.90
39875;DHT22;25547;52.530;13.194;2023-05-24T01:47:41;11.60;99.90
39875;DHT22;25547;52.530;13.194;2023-05-24T01:50:44;11.60;99.90
39875;DHT22;25547;52.530;13.194;2023-05-24T01:53:12;11.60;99.90
39875;DHT22;25547;52.530;13.194;2023-05-24T01:55:42;11.60;99.90
39875;DHT22;25547;52.530;13.194;2023-05-24T01:58:09;11.60;99.90
39875;DHT22;25547;52.530;13.194;2023-05-24T02:00:35;11.50;99.90
39875;DHT22;25547;52.530;13.194;2023-05-24T02:03:02;11.50;99.90
39875;DHT22;25547;52.530;13.194;2023-05-24T02:05:28;11.50;99.90
39875;DHT22;25547;52.530;13.194;2023-05-24T02:07:56;11.50;99.90
39875;DHT22;25547;52.530;13.194;2023-05-24T02:10:21;11.50;99.90
39875;DHT22;25547;52.530;13.194;2023-05-24T02:12:50;11.50;99.90
39875;DHT22;25547;52.530;13.194;2023-05-24T02:15:18;11.50;99.90
39875;DHT22;25547;52.530;13.194;2023-05-24T02:17:45;11.40;99.90
39875;DHT22;25547;52.530;13.194;2023-05-24T02:20:11;11.60;99.90
39875;DHT22;25547;52.530;13.194;2023-05-24T02:22:39;11.50;99.90
39875;DHT22;25547;52.530;13.194;2023-05-24T02:25:07;11.50;99.90
39875;DHT22;25547;52.530;13.194;2023-05-24T02:27:35;11.60;99.90
39875;DHT22;25547;52.530;13.194;2023-05-24T02:30:01;11.50;99.90
39875;DHT22;25547;52.530;13.194;2023-05-24T02:32:26;11.50;99.90
39875;DHT22;25547;52.530;13.194;2023-05-24T02:34:54;11.40;99.90
39875;DHT22;25547;52.530;13.194;2023-05-24T02:37:23;11.40;99.90
39875;DHT22;25547;52.530;13.194;2023-05-24T02:39:49;11.40;99.90
39875;DHT22;25547;52.530;13.194;2023-05-24T02:42:15;11.40;99.90
39875;DHT22;25547;52.530;13.194;2023-05-24T02:44:46;11.40;99.90
39875;DHT22;25547;52.530;13.194;2023-05-24T02:47:17;11.40;99.90
39875;DHT22;25547;52.530;13.194;2023-05-24T02:49:43;11.40;99.90
39875;DHT22;25547;52.530;13.194;2023-05-24T02:52:09;11.40;99.90
39875;DHT22;25547;52.530;13.194;2023-05-24T02:54:34;11.40;99.90
39875;DHT22;25547;52.530;13.194;2023-05-24T02:57:01;11.40;99.90
39875;DHT22;25547;52.530;13.194;2023-05-24T02:59:29;11.40;99.90
39875;DHT22;25547;52.530;13.194;2023-05-24T03:01:55;11.40;99.90
39875;DHT22;25547;52.530;13.194;2023-05-24T03:04:23;11.40;99.90
39875;DHT22;25547;52.530;13.194;2023-05-24T03:06:49;11.40;99.90
39875;DHT22;25547;52.530;13.194;2023-05-24T03:09:14;11.40;99.90
39875;DHT22;25547;52.530;13.194;2023-05-24T03:11:41;11.40;99.90
39875;DHT22;25547;52.530;13.194;2023-05-24T03:14:09;11.40;99.90
39875;DHT22;25547;52.530;13.194;2023-05-24T03:16:37;11.40;99.90
39875;DHT22;25547;52.530;13.194;2023-05-24T03:19:03;11.40;99.90
39875;DHT22;25547;52.530;13.194;2023-05-24T03:21:30;11.40;99.90
39875;DHT22;25547;52.530;13.194;2023-05-24T03:23:56;11.30;99.90
39875;DHT22;25547;52.530;13.194;2023-05-24T03:26:22;11.40;99.90
39875;DHT22;25547;52.530;13.194;2023-05-24T03:28:48;11.30;99.90
39875;DHT22;25547;52.530;13.194;2023-05-24T03:31:15;11.30;99.90
39875;DHT22;25547;52.530;13.194;2023-05-24T03:33:41;11.30;99.90
39875;DHT22;25547;52.530;13.194;2023-05-24T03:36:06;11.30;99.90
39875;DHT22;25547;52.530;13.194;2023-05-24T03:38:34;11.30;99.90
39875;DHT22;25547;52.530;13.194;2023-05-24T03:41:02;11.30;99.90
39875;DHT22;25547;52.530;13.194;2023-05-24T03:43:30;11.40;99.90
39875;DHT22;25547;52.530;13.194;2023-05-24T03:45:56;11.30;99.90
39875;DHT22;25547;52.530;13.194;2023-05-24T03:48:24;11.30;99.90
39875;DHT22;25547;52.530;13.194;2023-05-24T03:50:49;11.20;99.90
39875;DHT22;25547;52.530;13.194;2023-05-24T03:53:17;11.30;99.90
39875;DHT22;25547;52.530;13.194;2023-05-24T03:55:43;11.30;99.90
39875;DHT22;25547;52.530;13.194;2023-05-24T03:58:09;11.30;99.90
39875;DHT22;25547;52.530;13.194;2023-05-24T04:00:34;11.30;99.90
39875;DHT22;25547;52.530;13.194;2023-05-24T04:03:02;11.30;99.90
39875;DHT22;25547;52.530;13.194;2023-05-24T04:05:31;11.40;99.90
39875;DHT22;25547;52.530;13.194;2023-05-24T04:07:56;11.30;99.90
39875;DHT22;25547;52.530;13.194;2023-05-24T04:10:22;11.30;99.90
39875;DHT22;25547;52.530;13.194;2023-05-24T04:12:50;11.30;99.90
39875;DHT22;25547;52.530;13.194;2023-05-24T04:15:16;11.30;99.90
39875;DHT22;25547;52.530;13.194;2023-05-24T04:17:43;11.20;99.90
39875;DHT22;25547;52.530;13.194;2023-05-24T04:20:12;11.20;99.90
39875;DHT22;25547;52.530;13.194;2023-05-24T04:22:38;11.20;99.90
39875;DHT22;25547;52.530;13.194;2023-05-24T04:25:06;11.30;99.90
39875;DHT22;25547;52.530;13.194;2023-05-24T04:27:34;11.10;99.90
39875;DHT22;25547;52.530;13.194;2023-05-24T04:30:00;11.10;99.90
39875;DHT22;25547;52.530;13.194;2023-05-24T04:32:28;11.00;99.90
39875;DHT22;25547;52.530;13.194;2023-05-24T04:34:57;11.10;99.90
39875;DHT22;25547;52.530;13.194;2023-05-24T04:37:22;11.10;99.90
39875;DHT22;25547;52.530;13.194;2023-05-24T04:39:49;11.10;99.90
39875;DHT22;25547;52.530;13.194;2023-05-24T04:42:14;11.10;99.90
39875;DHT22;25547;52.530;13.194;2023-05-24T04:44:43;11.10;99.90
39875;DHT22;25547;52.530;13.194;2023-05-24T04:47:09;11.10;99.90
39875;DHT22;25547;52.530;13.194;2023-05-24T04:49:37;11.10;99.90
39875;DHT22;25547;52.530;13.194;2023-05-24T04:52:06;11.20;99.90
39875;DHT22;25547;52.530;13.194;2023-05-24T04:54:32;11.20;99.90
39875;DHT22;25547;52.530;13.194;2023-05-24T04:56:58;11.30;99.90
39875;DHT22;25547;52.530;13.194;2023-05-24T04:59:24;11.30;99.90
39875;DHT22;25547;52.530;13.194;2023-05-24T05:01:49;11.30;99.90
39875;DHT22;25547;52.530;13.194;2023-05-24T05:04:15;11.30;99.90
39875;DHT22;25547;52.530;13.194;2023-05-24T05:06:41;11.40;99.90
39875;DHT22;25547;52.530;13.194;2023-05-24T05:09:09;11.30;99.90
39875;DHT22;25547;52.530;13.194;2023-05-24T05:11:38;11.30;99.90
39875;DHT22;25547;52.530;13.194;2023-05-24T05:14:06;11.30;99.90
39875;DHT22;25547;52.530;13.194;2023-05-24T05:16:35;11.30;99.90
39875;DHT22;25547;52.530;13.194;2023-05-24T05:19:01;11.30;99.90
39875;DHT22;25547;52.530;13.194;2023-05-24T05:21:29;11.30;99.90
39875;DHT22;25547;52.530;13.194;2023-05-24T05:24:00;11.30;99.90
39875;DHT22;25547;52.530;13.194;2023-05-24T05:26:26;11.30;99.90
39875;DHT22;25547;52.530;13.194;2023-05-24T05:28:52;11.30;99.90
39875;DHT22;25547;52.530;13.194;2023-05-24T05:31:19;11.40;99.90
39875;DHT22;25547;52.530;13.194;2023-05-24T05:33:45;11.30;99.90
39875;DHT22;25547;52.530;13.194;2023-05-24T05:36:10;11.40;99.90
39875;DHT22;25547;52.530;13.194;2023-05-24T05:38:36;11.40;99.90
39875;DHT22;25547;52.530;13.194;2023-05-24T05:41:02;11.40;99.90
39875;DHT22;25547;52.530;13.194;2023-05-24T05:43:27;11.60;99.90
39875;DHT22;25547;52.530;13.194;2023-05-24T05:45:54;11.50;99.90
39875;DHT22;25547;52.530;13.194;2023-05-24T05:48:20;11.40;99.90
39875;DHT22;25547;52.530;13.194;2023-05-24T05:50:46;11.30;99.90
39875;DHT22;25547;52.530;13.194;2023-05-24T05:53:14;11.30;99.90
39875;DHT22;25547;52.530;13.194;2023-05-24T05:55:43;11.40;99.90
39875;DHT22;25547;52.530;13.194;2023-05-24T05:58:08;11.40;99.90
39875;DHT22;25547;52.530;13.194;2023-05-24T06:00:37;11.50;99.90
39875;DHT22;25547;52.530;13.194;2023-05-24T22:00:59;11.80;99.90
39875;DHT22;25547;52.530;13.194;2023-05-24T22:03:27;11.70;99.90
39875;DHT22;25547;52.530;13.194;2023-05-24T22:05:54;11.60;99.90
39875;DHT22;25547;52.530;13.194;2023-05-24T22:08:22;11.60;99.90
39875;DHT22;25547;52.530;13.194;2023-05-24T22:10:47;11.60;99.90
39875;DHT22;25547;52.530;13.194;2023-05-24T22:13:13;11.50;99.90
39875;DHT22;25547;52.530;13.194;2023-05-24T22:15:39;11.60;99.90
39875;DHT22;25547;52.530;13.194;2023-05-24T22:18:04;11.50;99.90
39875;DHT22;25547;52.530;13.194;2023-05-24T22:20:35;11.50;99.90
39875;DHT22;25547;52.530;13.194;2023-05-24T22:23:04;11.50;99.90
39875;DHT22;25547;52.530;13.194;2023-05-24T22:25:29;11.40;99.90
39875;DHT22;25547;52.530;13.194;2023-05-24T22:27:57;11.40;99.90
39875;DHT22;25547;52.530;13.194;2023-05-24T22:30:25;11.40;99.90
39875;DHT22;25547;52.530;13.194;2023-05-24T22:32:51;11.30;99.90
39875;DHT22;25547;52.530;13.194;2023-05-24T22:35:17;11.20;99.90
39875;DHT22;25547;52.530;13.194;2023-05-24T22:37:43;11.20;99.90
39875;DHT22;25547;52.530;13.194;2023-05-24T22:40:11;11.20;99.90
39875;DHT22;25547;52.530;13.194;2023-05-24T22:42:39;11.20;99.90
39875;DHT22;25547;52.530;13.194;2023-05-24T22:45:07;11.10;99.90
39875;DHT22;25547;52.530;13.194;2023-05-24T22:47:33;11.10;99.90
39875;DHT22;25547;52.530;13.194;2023-05-24T22:49:59;11.10;99.90
39875;DHT22;25547;52.530;13.194;2023-05-24T22:52:28;11.00;99.90
39875;DHT22;25547;52.530;13.194;2023-05-24T22:54:58;11.00;99.90
39875;DHT22;25547;52.530;13.194;2023-05-24T22:57:24;11.00;99.90
39875;DHT22;25547;52.530;13.194;2023-05-24T22:59:50;11.10;99.90
39875;DHT22;25547;52.530;13.194;2023-05-24T23:02:15;11.10;99.90
39875;DHT22;25547;52.530;13.194;2023-05-24T23:04:41;11.20;99.90
39875;DHT22;25547;52.530;13.194;2023-05-24T23:07:13;11.10;99.90
39875;DHT22;25547;52.530;13.194;2023-05-24T23:09:42;11.10;99.90
39875;DHT22;25547;52.530;13.194;2023-05-24T23:12:10;11.10;99.90
39875;DHT22;25547;52.530;13.194;2023-05-24T23:14:37;10.90;99.90
39875;DHT22;25547;52.530;13.194;2023-05-24T23:17:07;10.90;99.90
39875;DHT22;25547;52.530;13.194;2023-05-24T23:19:42;10.90;99.90
39875;DHT22;25547;52.530;13.194;2023-05-24T23:22:09;10.90;99.90
39875;DHT22;25547;52.530;13.194;2023-05-24T23:24:40;10.80;99.90
39875;DHT22;25547;52.530;13.194;2023-05-24T23:27:11;10.80;99.90
39875;DHT22;25547;52.530;13.194;2023-05-24T23:29:41;10.80;99.90
39875;DHT22;25547;52.530;13.194;2023-05-24T23:32:09;10.80;99.90
39875;DHT22;25547;52.530;13.194;2023-05-24T23:34:35;10.90;99.90
39875;DHT22;25547;52.530;13.194;2023-05-24T23:37:03;10.90;99.90
39875;DHT22;25547;52.530;13.194;2023-05-24T23:39:30;10.90;99.90
39875;DHT22;25547;52.530;13.194;2023-05-24T23:41:55;10.90;99.90
39875;DHT22;25547;52.530;13.194;2023-05-24T23:44:21;10.80;99.90
39875;DHT22;25547;52.530;13.194;2023-05-24T23:46:51;10.70;99.90
39875;DHT22;25547;52.530;13.194;2023-05-24T23:49:20;10.70;99.90
39875;DHT22;25547;52.530;13.194;2023-05-24T23:51:48;10.70;99.90
39875;DHT22;25547;52.530;13.194;2023-05-24T23:54:14;10.80;99.90
39875;DHT22;25547;52.530;13.194;2023-05-24T23:56:40;10.80;99.90
39875;DHT22;25547;52.530;13.194;2023-05-24T23:59:07;10.80;99.90
